sensor_id;sensor_type;location;lat;lon;timestamp;P1;durP1;ratioP1;P2;durP2;ratioP2
30380;SDS011;17169;50.966;11.038;2023-01-13T00:00:42;0.60;;;0.60;;
30380;SDS011;17169;50.966;11.038;2023-01-13T00:03:44;2.22;;;0.60;;
30380;SDS011;17169;50.966;11.038;2023-01-13T00:06:47;0.75;;;0.50;;
30380;SDS011;17169;50.966;11.038;2023-01-13T00:09:49;1.42;;;0.57;;
30380;SDS011;17169;50.966;11.038;2023-01-13T00:12:51;1.17;;;0.60;;
30380;SDS011;17169;50.966;11.038;2023-01-13T00:15:55;2.05;;;0.50;;
30380;SDS011;17169;50.966;11.038;2023-01-13T00:18:58;1.10;;;0.60;;
30380;SDS011;17169;50.966;11.038;2023-01-13T00:22:01;1.30;;;0.57;;
30380;SDS011;17169;50.966;11.038;2023-01-13T00:25:03;0.40;;;0.40;;
30380;SDS011;17169;50.966;11.038;2023-01-13T00:28:06;0.60;;;0.50;;
30380;SDS011;17169;50.966;11.038;2023-01-13T00:31:11;0.43;;;0.43;;
30380;SDS011;17169;50.966;11.038;2023-01-13T00:34:15;0.40;;;0.40;;
30380;SDS011;17169;50.966;11.038;2023-01-13T00:37:18;0.85;;;0.60;;
30380;SDS011;17169;50.966;11.038;2023-01-13T00:40:20;0.50;;;0.50;;
30380;SDS011;17169;50.966;11.038;2023-01-13T00:43:23;0.68;;;0.50;;
30380;SDS011;17169;50.966;11.038;2023-01-13T00:46:26;0.40;;;0.40;;
30380;SDS011;17169;50.966;11.038;2023-01-13T00:49:29;0.60;;;0.50;;
30380;SDS011;17169;50.966;11.038;2023-01-13T00:52:31;1.60;;;0.50;;
30380;SDS011;17169;50.966;11.038;2023-01-13T00:55:34;0.68;;;0.50;;
30380;SDS011;17169;50.966;11.038;2023-01-13T00:58:36;0.68;;;0.50;;
30380;SDS011;17169;50.966;11.038;2023-01-13T01:01:40;1.65;;;0.50;;
30380;SDS011;17169;50.966;11.038;2023-01-13T01:04:42;1.27;;;0.60;;
30380;SDS011;17169;50.966;11.038;2023-01-13T01:07:44;0.80;;;0.50;;
30380;SDS011;17169;50.966;11.038;2023-01-13T01:10:47;1.63;;;0.50;;
30380;SDS011;17169;50.966;11.038;2023-01-13T01:13:49;0.82;;;0.50;;
30380;SDS011;17169;50.966;11.038;2023-01-13T01:16:54;1.17;;;0.60;;
30380;SDS011;17169;50.966;11.038;2023-01-13T01:19:56;0.50;;;0.50;;
30380;SDS011;17169;50.966;11.038;2023-01-13T01:22:59;0.40;;;0.40;;
30380;SDS011;17169;50.966;11.038;2023-01-13T01:26:01;0.50;;;0.50;;
30380;SDS011;17169;50.966;11.038;2023-01-13T01:29:04;0.40;;;0.40;;
30380;SDS011;17169;50.966;11.038;2023-01-13T01:32:08;0.50;;;0.50;;
30380;SDS011;17169;50.966;11.038;2023-01-13T01:35:10;0.40;;;0.40;;
30380;SDS011;17169;50.966;11.038;2023-01-13T01:38:13;1.75;;;0.60;;
30380;SDS011;17169;50.966;11.038;2023-01-13T01:41:16;0.50;;;0.50;;
30380;SDS011;17169;50.966;11.038;2023-01-13T01:48:01;0.50;;;0.50;;
30380;SDS011;17169;50.966;11.038;2023-01-13T01:51:07;1.00;;;0.40;;
30380;SDS011;17169;50.966;11.038;2023-01-13T01:54:13;0.73;;;0.50;;
30380;SDS011;17169;50.966;11.038;2023-01-13T01:57:22;0.60;;;0.50;;
30380;SDS011;17169;50.966;11.038;2023-01-13T02:00:27;2.40;;;0.60;;
30380;SDS011;17169;50.966;11.038;2023-01-13T02:03:32;0.40;;;0.40;;
30380;SDS011;17169;50.966;11.038;2023-01-13T02:06:39;0.38;;;0.38;;
30380;SDS011;17169;50.966;11.038;2023-01-13T02:09:43;0.50;;;0.50;;
30380;SDS011;17169;50.966;11.038;2023-01-13T02:12:46;0.40;;;0.40;;
30380;SDS011;17169;50.966;11.038;2023-01-13T02:15:53;0.68;;;0.40;;
30380;SDS011;17169;50.966;11.038;2023-01-13T02:19:01;1.00;;;0.50;;
30380;SDS011;17169;50.966;11.038;2023-01-13T02:22:18;0.40;;;0.40;;
30380;SDS011;17169;50.966;11.038;2023-01-13T02:25:41;0.82;;;0.50;;
30380;SDS011;17169;50.966;11.038;2023-01-13T02:29:00;1.17;;;0.50;;
30380;SDS011;17169;50.966;11.038;2023-01-13T02:32:33;0.70;;;0.50;;
30380;SDS011;17169;50.966;11.038;2023-01-13T02:35:43;0.50;;;0.50;;
30380;SDS011;17169;50.966;11.038;2023-01-13T02:38:53;0.40;;;0.40;;
30380;SDS011;17169;50.966;11.038;2023-01-13T02:42:01;1.25;;;0.50;;
30380;SDS011;17169;50.966;11.038;2023-01-13T02:45:26;0.70;;;0.70;;
30380;SDS011;17169;50.966;11.038;2023-01-13T02:48:34;2.17;;;0.60;;
30380;SDS011;17169;50.966;11.038;2023-01-13T02:51:38;1.48;;;0.45;;
30380;SDS011;17169;50.966;11.038;2023-01-13T02:54:43;0.50;;;0.50;;
30380;SDS011;17169;50.966;11.038;2023-01-13T02:57:50;1.33;;;0.50;;
30380;SDS011;17169;50.966;11.038;2023-01-13T03:04:08;0.52;;;0.40;;
30380;SDS011;17169;50.966;11.038;2023-01-13T03:07:15;3.10;;;0.55;;
30380;SDS011;17169;50.966;11.038;2023-01-13T03:17:15;0.43;;;0.40;;
30380;SDS011;17169;50.966;11.038;2023-01-13T03:20:33;1.23;;;0.50;;
30380;SDS011;17169;50.966;11.038;2023-01-13T03:23:45;0.50;;;0.50;;
30380;SDS011;17169;50.966;11.038;2023-01-13T03:26:53;0.82;;;0.50;;
30380;SDS011;17169;50.966;11.038;2023-01-13T03:30:02;0.40;;;0.40;;
30380;SDS011;17169;50.966;11.038;2023-01-13T03:33:09;0.50;;;0.50;;
30380;SDS011;17169;50.966;11.038;2023-01-13T03:36:18;0.73;;;0.40;;
30380;SDS011;17169;50.966;11.038;2023-01-13T03:39:26;0.50;;;0.50;;
30380;SDS011;17169;50.966;11.038;2023-01-13T03:42:33;1.17;;;0.65;;
30380;SDS011;17169;50.966;11.038;2023-01-13T03:48:40;2.33;;;0.70;;
30380;SDS011;17169;50.966;11.038;2023-01-13T03:51:48;3.17;;;1.42;;
30380;SDS011;17169;50.966;11.038;2023-01-13T03:54:58;1.05;;;0.63;;
30380;SDS011;17169;50.966;11.038;2023-01-13T03:58:04;0.50;;;0.50;;
30380;SDS011;17169;50.966;11.038;2023-01-13T04:01:14;0.82;;;0.63;;
30380;SDS011;17169;50.966;11.038;2023-01-13T04:04:21;0.75;;;0.50;;
30380;SDS011;17169;50.966;11.038;2023-01-13T04:07:32;0.88;;;0.47;;
30380;SDS011;17169;50.966;11.038;2023-01-13T04:10:43;0.40;;;0.40;;
30380;SDS011;17169;50.966;11.038;2023-01-13T04:13:51;1.13;;;0.75;;
30380;SDS011;17169;50.966;11.038;2023-01-13T04:16:54;1.75;;;0.60;;
30380;SDS011;17169;50.966;11.038;2023-01-13T04:19:57;0.50;;;0.50;;
30380;SDS011;17169;50.966;11.038;2023-01-13T04:23:01;0.40;;;0.40;;
30380;SDS011;17169;50.966;11.038;2023-01-13T04:26:04;1.20;;;0.50;;
30380;SDS011;17169;50.966;11.038;2023-01-13T04:29:06;0.40;;;0.40;;
30380;SDS011;17169;50.966;11.038;2023-01-13T04:32:09;0.50;;;0.50;;
30380;SDS011;17169;50.966;11.038;2023-01-13T04:35:11;0.40;;;0.40;;
30380;SDS011;17169;50.966;11.038;2023-01-13T04:38:15;0.95;;;0.40;;
30380;SDS011;17169;50.966;11.038;2023-01-13T04:41:19;0.75;;;0.50;;
30380;SDS011;17169;50.966;11.038;2023-01-13T04:44:21;1.20;;;0.47;;
30380;SDS011;17169;50.966;11.038;2023-01-13T04:47:24;0.40;;;0.40;;
30380;SDS011;17169;50.966;11.038;2023-01-13T04:50:26;0.60;;;0.40;;
30380;SDS011;17169;50.966;11.038;2023-01-13T04:53:30;0.40;;;0.40;;
30380;SDS011;17169;50.966;11.038;2023-01-13T04:56:33;0.50;;;0.40;;
30380;SDS011;17169;50.966;11.038;2023-01-13T04:59:35;0.55;;;0.40;;
30380;SDS011;17169;50.966;11.038;2023-01-13T05:02:37;0.55;;;0.50;;
30380;SDS011;17169;50.966;11.038;2023-01-13T05:05:40;0.52;;;0.52;;
30380;SDS011;17169;50.966;11.038;2023-01-13T05:08:44;0.55;;;0.50;;
30380;SDS011;17169;50.966;11.038;2023-01-13T05:11:46;0.40;;;0.40;;
30380;SDS011;17169;50.966;11.038;2023-01-13T05:15:08;0.75;;;0.60;;
30380;SDS011;17169;50.966;11.038;2023-01-13T05:18:29;0.52;;;0.50;;
30380;SDS011;17169;50.966;11.038;2023-01-13T05:21:32;0.85;;;0.40;;
30380;SDS011;17169;50.966;11.038;2023-01-13T05:24:53;0.40;;;0.40;;
30380;SDS011;17169;50.966;11.038;2023-01-13T05:28:13;0.98;;;0.50;;
30380;SDS011;17169;50.966;11.038;2023-01-13T05:31:15;0.40;;;0.38;;
30380;SDS011;17169;50.966;11.038;2023-01-13T05:34:18;0.77;;;0.50;;
30380;SDS011;17169;50.966;11.038;2023-01-13T05:37:20;0.70;;;0.40;;
30380;SDS011;17169;50.966;11.038;2023-01-13T05:40:25;0.40;;;0.40;;
30380;SDS011;17169;50.966;11.038;2023-01-13T05:43:45;0.55;;;0.50;;
30380;SDS011;17169;50.966;11.038;2023-01-13T05:46:48;0.52;;;0.50;;
30380;SDS011;17169;50.966;11.038;2023-01-13T05:49:50;2.05;;;0.50;;
30380;SDS011;17169;50.966;11.038;2023-01-13T05:52:53;0.40;;;0.40;;
30380;SDS011;17169;50.966;11.038;2023-01-13T05:55:57;0.40;;;0.40;;
30380;SDS011;17169;50.966;11.038;2023-01-13T05:58:59;1.17;;;0.60;;
30380;SDS011;17169;50.966;11.038;2023-01-13T06:02:02;2.20;;;0.57;;
30380;SDS011;17169;50.966;11.038;2023-01-13T06:05:04;1.15;;;0.50;;
30380;SDS011;17169;50.966;11.038;2023-01-13T06:08:08;1.17;;;0.75;;
30380;SDS011;17169;50.966;11.038;2023-01-13T06:11:12;2.50;;;0.60;;
30380;SDS011;17169;50.966;11.038;2023-01-13T06:14:14;1.10;;;0.50;;
30380;SDS011;17169;50.966;11.038;2023-01-13T06:17:16;0.50;;;0.50;;
30380;SDS011;17169;50.966;11.038;2023-01-13T06:20:19;0.75;;;0.60;;
30380;SDS011;17169;50.966;11.038;2023-01-13T06:23:21;0.70;;;0.70;;
30380;SDS011;17169;50.966;11.038;2023-01-13T06:26:25;0.40;;;0.40;;
30380;SDS011;17169;50.966;11.038;2023-01-13T06:29:30;4.63;;;0.70;;
30380;SDS011;17169;50.966;11.038;2023-01-13T06:32:34;1.25;;;0.70;;
30380;SDS011;17169;50.966;11.038;2023-01-13T06:35:43;1.38;;;0.70;;
30380;SDS011;17169;50.966;11.038;2023-01-13T06:38:51;2.28;;;0.70;;
30380;SDS011;17169;50.966;11.038;2023-01-13T06:41:59;0.90;;;0.60;;
30380;SDS011;17169;50.966;11.038;2023-01-13T06:45:20;5.97;;;0.80;;
30380;SDS011;17169;50.966;11.038;2023-01-13T06:48:24;2.45;;;0.75;;
30380;SDS011;17169;50.966;11.038;2023-01-13T06:51:32;5.78;;;0.70;;
30380;SDS011;17169;50.966;11.038;2023-01-13T06:54:34;1.42;;;0.75;;
30380;SDS011;17169;50.966;11.038;2023-01-13T06:57:46;2.20;;;0.80;;
30380;SDS011;17169;50.966;11.038;2023-01-13T07:00:50;3.20;;;0.68;;
30380;SDS011;17169;50.966;11.038;2023-01-13T07:03:53;1.55;;;0.77;;
30380;SDS011;17169;50.966;11.038;2023-01-13T07:06:55;1.80;;;0.80;;
30380;SDS011;17169;50.966;11.038;2023-01-13T07:09:57;1.92;;;0.75;;
30380;SDS011;17169;50.966;11.038;2023-01-13T07:13:02;3.15;;;0.70;;
30380;SDS011;17169;50.966;11.038;2023-01-13T07:16:31;2.55;;;0.77;;
30380;SDS011;17169;50.966;11.038;2023-01-13T07:19:33;0.63;;;0.50;;
30380;SDS011;17169;50.966;11.038;2023-01-13T07:22:36;1.70;;;0.75;;
30380;SDS011;17169;50.966;11.038;2023-01-13T07:25:38;3.38;;;1.02;;
30380;SDS011;17169;50.966;11.038;2023-01-13T07:28:42;0.60;;;0.60;;
30380;SDS011;17169;50.966;11.038;2023-01-13T07:31:44;0.77;;;0.65;;
30380;SDS011;17169;50.966;11.038;2023-01-13T07:34:47;1.63;;;0.60;;
30380;SDS011;17169;50.966;11.038;2023-01-13T07:37:49;1.92;;;0.70;;
30380;SDS011;17169;50.966;11.038;2023-01-13T07:40:52;5.10;;;0.82;;
30380;SDS011;17169;50.966;11.038;2023-01-13T07:43:56;1.50;;;0.70;;
30380;SDS011;17169;50.966;11.038;2023-01-13T07:46:57;2.00;;;0.60;;
30380;SDS011;17169;50.966;11.038;2023-01-13T07:49:59;0.82;;;0.63;;
30380;SDS011;17169;50.966;11.038;2023-01-13T07:53:02;0.75;;;0.68;;
30380;SDS011;17169;50.966;11.038;2023-01-13T07:56:05;0.57;;;0.57;;
30380;SDS011;17169;50.966;11.038;2023-01-13T07:59:10;1.17;;;0.60;;
30380;SDS011;17169;50.966;11.038;2023-01-13T08:02:12;6.22;;;0.77;;
30380;SDS011;17169;50.966;11.038;2023-01-13T08:05:15;3.10;;;0.70;;
30380;SDS011;17169;50.966;11.038;2023-01-13T08:08:18;1.02;;;0.60;;
30380;SDS011;17169;50.966;11.038;2023-01-13T08:11:20;4.70;;;0.80;;
30380;SDS011;17169;50.966;11.038;2023-01-13T08:14:24;1.25;;;0.63;;
30380;SDS011;17169;50.966;11.038;2023-01-13T08:17:26;3.08;;;0.75;;
30380;SDS011;17169;50.966;11.038;2023-01-13T08:20:28;3.47;;;0.80;;
30380;SDS011;17169;50.966;11.038;2023-01-13T08:23:31;3.03;;;0.90;;
30380;SDS011;17169;50.966;11.038;2023-01-13T08:26:33;2.90;;;0.77;;
30380;SDS011;17169;50.966;11.038;2023-01-13T08:29:37;2.80;;;0.70;;
30380;SDS011;17169;50.966;11.038;2023-01-13T08:32:42;3.40;;;1.10;;
30380;SDS011;17169;50.966;11.038;2023-01-13T08:35:44;2.90;;;1.15;;
30380;SDS011;17169;50.966;11.038;2023-01-13T08:38:48;1.45;;;0.88;;
30380;SDS011;17169;50.966;11.038;2023-01-13T08:41:50;2.97;;;0.75;;
30380;SDS011;17169;50.966;11.038;2023-01-13T08:44:57;1.25;;;0.70;;
30380;SDS011;17169;50.966;11.038;2023-01-13T08:48:00;1.13;;;0.75;;
30380;SDS011;17169;50.966;11.038;2023-01-13T08:51:03;4.50;;;1.00;;
30380;SDS011;17169;50.966;11.038;2023-01-13T08:54:07;2.70;;;0.80;;
30380;SDS011;17169;50.966;11.038;2023-01-13T08:57:09;3.90;;;1.10;;
30380;SDS011;17169;50.966;11.038;2023-01-13T09:00:14;2.50;;;0.70;;
30380;SDS011;17169;50.966;11.038;2023-01-13T09:03:17;5.32;;;0.90;;
30380;SDS011;17169;50.966;11.038;2023-01-13T09:06:19;1.60;;;0.73;;
30380;SDS011;17169;50.966;11.038;2023-01-13T09:09:22;2.00;;;0.80;;
30380;SDS011;17169;50.966;11.038;2023-01-13T09:12:27;1.17;;;0.85;;
30380;SDS011;17169;50.966;11.038;2023-01-13T09:15:48;1.02;;;0.60;;
30380;SDS011;17169;50.966;11.038;2023-01-13T09:18:51;2.80;;;1.20;;
30380;SDS011;17169;50.966;11.038;2023-01-13T09:21:54;0.85;;;0.70;;
30380;SDS011;17169;50.966;11.038;2023-01-13T09:24:57;3.38;;;0.75;;
30380;SDS011;17169;50.966;11.038;2023-01-13T09:27:59;2.30;;;0.70;;
30380;SDS011;17169;50.966;11.038;2023-01-13T09:31:03;2.10;;;0.80;;
30380;SDS011;17169;50.966;11.038;2023-01-13T09:34:06;3.00;;;0.90;;
30380;SDS011;17169;50.966;11.038;2023-01-13T09:37:26;1.67;;;0.90;;
30380;SDS011;17169;50.966;11.038;2023-01-13T09:40:29;1.70;;;0.70;;
30380;SDS011;17169;50.966;11.038;2023-01-13T09:43:32;2.38;;;1.00;;
30380;SDS011;17169;50.966;11.038;2023-01-13T09:46:58;1.75;;;0.80;;
30380;SDS011;17169;50.966;11.038;2023-01-13T09:50:07;1.77;;;0.98;;
30380;SDS011;17169;50.966;11.038;2023-01-13T09:53:21;3.47;;;1.38;;
30380;SDS011;17169;50.966;11.038;2023-01-13T09:56:27;4.35;;;1.00;;
30380;SDS011;17169;50.966;11.038;2023-01-13T09:59:30;3.92;;;1.10;;
30380;SDS011;17169;50.966;11.038;2023-01-13T10:02:44;3.45;;;1.20;;
30380;SDS011;17169;50.966;11.038;2023-01-13T10:06:03;3.35;;;1.33;;
30380;SDS011;17169;50.966;11.038;2023-01-13T10:09:11;7.05;;;1.15;;
30380;SDS011;17169;50.966;11.038;2023-01-13T10:12:19;5.15;;;0.80;;
30380;SDS011;17169;50.966;11.038;2023-01-13T10:15:44;8.63;;;0.97;;
30380;SDS011;17169;50.966;11.038;2023-01-13T10:19:00;4.38;;;1.23;;
30380;SDS011;17169;50.966;11.038;2023-01-13T10:22:14;3.20;;;1.27;;
30380;SDS011;17169;50.966;11.038;2023-01-13T10:25:26;4.93;;;0.90;;
30380;SDS011;17169;50.966;11.038;2023-01-13T10:28:35;3.67;;;0.93;;
30380;SDS011;17169;50.966;11.038;2023-01-13T10:31:38;5.13;;;1.10;;
30380;SDS011;17169;50.966;11.038;2023-01-13T10:34:48;3.10;;;1.15;;
30380;SDS011;17169;50.966;11.038;2023-01-13T10:37:54;1.52;;;0.90;;
30380;SDS011;17169;50.966;11.038;2023-01-13T10:40:58;3.75;;;1.50;;
30380;SDS011;17169;50.966;11.038;2023-01-13T10:44:02;4.32;;;1.10;;
30380;SDS011;17169;50.966;11.038;2023-01-13T10:47:07;5.18;;;1.00;;
30380;SDS011;17169;50.966;11.038;2023-01-13T10:50:27;5.70;;;1.02;;
30380;SDS011;17169;50.966;11.038;2023-01-13T10:53:31;3.10;;;0.98;;
30380;SDS011;17169;50.966;11.038;2023-01-13T10:56:33;6.10;;;1.17;;
30380;SDS011;17169;50.966;11.038;2023-01-13T10:59:35;2.53;;;0.90;;
30380;SDS011;17169;50.966;11.038;2023-01-13T11:02:38;4.57;;;1.10;;
30380;SDS011;17169;50.966;11.038;2023-01-13T11:05:47;2.13;;;0.88;;
30380;SDS011;17169;50.966;11.038;2023-01-13T11:08:52;4.65;;;1.08;;
30380;SDS011;17169;50.966;11.038;2023-01-13T11:11:58;2.22;;;1.17;;
30380;SDS011;17169;50.966;11.038;2023-01-13T11:15:03;3.53;;;1.33;;
30380;SDS011;17169;50.966;11.038;2023-01-13T11:18:13;3.78;;;1.10;;
30380;SDS011;17169;50.966;11.038;2023-01-13T11:21:22;5.88;;;1.15;;
30380;SDS011;17169;50.966;11.038;2023-01-13T11:24:32;6.28;;;1.25;;
30380;SDS011;17169;50.966;11.038;2023-01-13T11:27:40;4.50;;;1.10;;
30380;SDS011;17169;50.966;11.038;2023-01-13T11:30:46;4.55;;;1.30;;
30380;SDS011;17169;50.966;11.038;2023-01-13T11:33:55;4.72;;;0.93;;
30380;SDS011;17169;50.966;11.038;2023-01-13T11:37:02;5.93;;;1.13;;
30380;SDS011;17169;50.966;11.038;2023-01-13T11:40:11;2.55;;;1.10;;
30380;SDS011;17169;50.966;11.038;2023-01-13T11:43:20;6.88;;;1.35;;
30380;SDS011;17169;50.966;11.038;2023-01-13T11:46:29;7.53;;;1.05;;
30380;SDS011;17169;50.966;11.038;2023-01-13T11:49:32;3.13;;;0.93;;
30380;SDS011;17169;50.966;11.038;2023-01-13T11:52:47;3.78;;;1.00;;
30380;SDS011;17169;50.966;11.038;2023-01-13T11:56:05;3.78;;;1.02;;
30380;SDS011;17169;50.966;11.038;2023-01-13T11:59:27;7.15;;;1.00;;
30380;SDS011;17169;50.966;11.038;2023-01-13T12:02:48;2.38;;;0.90;;
30380;SDS011;17169;50.966;11.038;2023-01-13T12:06:01;2.45;;;0.80;;
30380;SDS011;17169;50.966;11.038;2023-01-13T12:09:20;3.42;;;0.95;;
30380;SDS011;17169;50.966;11.038;2023-01-13T12:12:34;4.05;;;1.10;;
30380;SDS011;17169;50.966;11.038;2023-01-13T12:15:53;4.40;;;1.00;;
30380;SDS011;17169;50.966;11.038;2023-01-13T12:22:20;6.68;;;1.20;;
30380;SDS011;17169;50.966;11.038;2023-01-13T12:25:29;1.35;;;0.80;;
30380;SDS011;17169;50.966;11.038;2023-01-13T12:28:40;1.92;;;0.80;;
30380;SDS011;17169;50.966;11.038;2023-01-13T12:31:48;3.83;;;1.40;;
30380;SDS011;17169;50.966;11.038;2023-01-13T12:35:04;3.13;;;1.10;;
30380;SDS011;17169;50.966;11.038;2023-01-13T12:41:32;3.03;;;0.85;;
30380;SDS011;17169;50.966;11.038;2023-01-13T12:45:04;5.32;;;1.10;;
30380;SDS011;17169;50.966;11.038;2023-01-13T12:48:17;3.42;;;1.00;;
30380;SDS011;17169;50.966;11.038;2023-01-13T12:52:11;5.32;;;1.02;;
30380;SDS011;17169;50.966;11.038;2023-01-13T12:55:16;4.38;;;1.23;;
30380;SDS011;17169;50.966;11.038;2023-01-13T12:58:25;3.83;;;1.00;;
30380;SDS011;17169;50.966;11.038;2023-01-13T13:01:33;4.97;;;1.00;;
30380;SDS011;17169;50.966;11.038;2023-01-13T13:04:43;6.30;;;1.27;;
30380;SDS011;17169;50.966;11.038;2023-01-13T13:07:47;4.50;;;1.10;;
30380;SDS011;17169;50.966;11.038;2023-01-13T13:10:57;6.78;;;1.95;;
30380;SDS011;17169;50.966;11.038;2023-01-13T13:14:04;4.40;;;1.20;;
30380;SDS011;17169;50.966;11.038;2023-01-13T13:24:03;5.45;;;1.50;;
30380;SDS011;17169;50.966;11.038;2023-01-13T13:27:15;4.90;;;1.20;;
30380;SDS011;17169;50.966;11.038;2023-01-13T13:30:20;6.18;;;1.27;;
30380;SDS011;17169;50.966;11.038;2023-01-13T13:33:40;3.15;;;1.20;;
30380;SDS011;17169;50.966;11.038;2023-01-13T13:37:06;5.97;;;1.40;;
30380;SDS011;17169;50.966;11.038;2023-01-13T13:40:17;6.43;;;1.48;;
30380;SDS011;17169;50.966;11.038;2023-01-13T13:43:36;5.05;;;1.30;;
30380;SDS011;17169;50.966;11.038;2023-01-13T13:47:00;8.88;;;1.30;;
30380;SDS011;17169;50.966;11.038;2023-01-13T13:50:05;8.23;;;1.38;;
30380;SDS011;17169;50.966;11.038;2023-01-13T13:53:10;3.45;;;1.10;;
30380;SDS011;17169;50.966;11.038;2023-01-13T13:56:14;7.45;;;1.52;;
30380;SDS011;17169;50.966;11.038;2023-01-13T13:59:20;6.35;;;1.20;;
30380;SDS011;17169;50.966;11.038;2023-01-13T14:02:27;7.82;;;1.60;;
30380;SDS011;17169;50.966;11.038;2023-01-13T14:05:31;5.15;;;1.63;;
30380;SDS011;17169;50.966;11.038;2023-01-13T14:08:35;7.10;;;1.30;;
30380;SDS011;17169;50.966;11.038;2023-01-13T14:11:39;4.40;;;1.30;;
30380;SDS011;17169;50.966;11.038;2023-01-13T14:14:42;10.27;;;1.55;;
30380;SDS011;17169;50.966;11.038;2023-01-13T14:17:46;9.70;;;1.70;;
30380;SDS011;17169;50.966;11.038;2023-01-13T14:20:52;6.20;;;1.30;;
30380;SDS011;17169;50.966;11.038;2023-01-13T14:23:56;5.35;;;1.63;;
30380;SDS011;17169;50.966;11.038;2023-01-13T14:27:08;6.45;;;1.38;;
30380;SDS011;17169;50.966;11.038;2023-01-13T14:30:14;12.35;;;1.35;;
30380;SDS011;17169;50.966;11.038;2023-01-13T14:33:21;2.60;;;1.10;;
30380;SDS011;17169;50.966;11.038;2023-01-13T14:36:33;7.88;;;1.58;;
30380;SDS011;17169;50.966;11.038;2023-01-13T14:39:38;6.90;;;1.73;;
30380;SDS011;17169;50.966;11.038;2023-01-13T14:42:41;3.87;;;1.43;;
30380;SDS011;17169;50.966;11.038;2023-01-13T14:45:52;5.15;;;1.63;;
30380;SDS011;17169;50.966;11.038;2023-01-13T14:48:59;5.70;;;1.52;;
30380;SDS011;17169;50.966;11.038;2023-01-13T14:52:03;7.70;;;1.55;;
30380;SDS011;17169;50.966;11.038;2023-01-13T14:55:20;6.60;;;1.30;;
30380;SDS011;17169;50.966;11.038;2023-01-13T14:58:28;6.60;;;1.50;;
30380;SDS011;17169;50.966;11.038;2023-01-13T15:01:32;5.30;;;1.70;;
30380;SDS011;17169;50.966;11.038;2023-01-13T15:07:39;5.90;;;1.50;;
30380;SDS011;17169;50.966;11.038;2023-01-13T15:10:50;8.25;;;1.60;;
30380;SDS011;17169;50.966;11.038;2023-01-13T15:13:59;7.30;;;1.60;;
30380;SDS011;17169;50.966;11.038;2023-01-13T15:17:04;7.68;;;1.70;;
30380;SDS011;17169;50.966;11.038;2023-01-13T15:20:15;5.75;;;2.00;;
30380;SDS011;17169;50.966;11.038;2023-01-13T15:23:19;7.90;;;2.47;;
30380;SDS011;17169;50.966;11.038;2023-01-13T15:26:22;6.35;;;1.30;;
30380;SDS011;17169;50.966;11.038;2023-01-13T15:29:26;5.80;;;1.25;;
30380;SDS011;17169;50.966;11.038;2023-01-13T15:32:29;6.93;;;1.90;;
30380;SDS011;17169;50.966;11.038;2023-01-13T15:35:33;6.75;;;1.52;;
30380;SDS011;17169;50.966;11.038;2023-01-13T15:38:37;7.18;;;1.95;;
30380;SDS011;17169;50.966;11.038;2023-01-13T15:41:39;8.43;;;1.38;;
30380;SDS011;17169;50.966;11.038;2023-01-13T15:44:59;8.65;;;1.50;;
30380;SDS011;17169;50.966;11.038;2023-01-13T15:48:19;6.13;;;1.30;;
30380;SDS011;17169;50.966;11.038;2023-01-13T15:51:23;8.27;;;1.70;;
30380;SDS011;17169;50.966;11.038;2023-01-13T15:54:26;7.03;;;1.50;;
30380;SDS011;17169;50.966;11.038;2023-01-13T15:57:29;6.10;;;1.92;;
30380;SDS011;17169;50.966;11.038;2023-01-13T16:00:34;6.72;;;1.48;;
30380;SDS011;17169;50.966;11.038;2023-01-13T16:03:37;6.97;;;1.80;;
30380;SDS011;17169;50.966;11.038;2023-01-13T16:06:40;8.25;;;1.80;;
30380;SDS011;17169;50.966;11.038;2023-01-13T16:09:43;10.13;;;1.98;;
30380;SDS011;17169;50.966;11.038;2023-01-13T16:12:46;5.72;;;1.90;;
30380;SDS011;17169;50.966;11.038;2023-01-13T16:15:48;5.88;;;1.50;;
30380;SDS011;17169;50.966;11.038;2023-01-13T16:18:51;5.97;;;1.48;;
30380;SDS011;17169;50.966;11.038;2023-01-13T16:21:55;8.07;;;2.10;;
30380;SDS011;17169;50.966;11.038;2023-01-13T16:24:59;8.73;;;1.60;;
30380;SDS011;17169;50.966;11.038;2023-01-13T16:28:01;6.70;;;1.58;;
30380;SDS011;17169;50.966;11.038;2023-01-13T16:31:13;6.38;;;1.48;;
30380;SDS011;17169;50.966;11.038;2023-01-13T16:34:22;6.03;;;1.63;;
30380;SDS011;17169;50.966;11.038;2023-01-13T16:37:26;6.95;;;1.60;;
30380;SDS011;17169;50.966;11.038;2023-01-13T16:40:30;5.97;;;1.83;;
30380;SDS011;17169;50.966;11.038;2023-01-13T16:43:34;7.28;;;2.30;;
30380;SDS011;17169;50.966;11.038;2023-01-13T16:46:36;5.85;;;1.48;;
30380;SDS011;17169;50.966;11.038;2023-01-13T16:49:38;7.10;;;1.77;;
30380;SDS011;17169;50.966;11.038;2023-01-13T16:52:42;7.30;;;2.40;;
30380;SDS011;17169;50.966;11.038;2023-01-13T16:55:44;6.95;;;1.50;;
30380;SDS011;17169;50.966;11.038;2023-01-13T16:58:47;7.15;;;2.20;;
30380;SDS011;17169;50.966;11.038;2023-01-13T17:01:50;12.30;;;2.60;;
30380;SDS011;17169;50.966;11.038;2023-01-13T17:04:52;11.18;;;2.03;;
30380;SDS011;17169;50.966;11.038;2023-01-13T17:07:56;15.43;;;2.53;;
30380;SDS011;17169;50.966;11.038;2023-01-13T17:10:59;5.80;;;1.70;;
30380;SDS011;17169;50.966;11.038;2023-01-13T17:14:01;5.28;;;1.50;;
30380;SDS011;17169;50.966;11.038;2023-01-13T17:17:03;6.60;;;1.60;;
30380;SDS011;17169;50.966;11.038;2023-01-13T17:20:06;8.40;;;2.10;;
30380;SDS011;17169;50.966;11.038;2023-01-13T17:23:13;6.60;;;1.75;;
30380;SDS011;17169;50.966;11.038;2023-01-13T17:26:23;6.63;;;1.90;;
30380;SDS011;17169;50.966;11.038;2023-01-13T17:29:31;5.77;;;1.80;;
30380;SDS011;17169;50.966;11.038;2023-01-13T17:32:33;8.77;;;1.83;;
30380;SDS011;17169;50.966;11.038;2023-01-13T17:39:32;9.02;;;1.42;;
30380;SDS011;17169;50.966;11.038;2023-01-13T17:42:35;8.93;;;2.50;;
30380;SDS011;17169;50.966;11.038;2023-01-13T17:45:39;5.10;;;1.42;;
30380;SDS011;17169;50.966;11.038;2023-01-13T17:48:42;7.00;;;2.40;;
30380;SDS011;17169;50.966;11.038;2023-01-13T17:51:44;6.35;;;1.85;;
30380;SDS011;17169;50.966;11.038;2023-01-13T17:54:49;6.35;;;1.65;;
30380;SDS011;17169;50.966;11.038;2023-01-13T17:57:52;6.40;;;1.40;;
30380;SDS011;17169;50.966;11.038;2023-01-13T18:00:54;5.78;;;1.63;;
30380;SDS011;17169;50.966;11.038;2023-01-13T18:03:57;8.88;;;1.88;;
30380;SDS011;17169;50.966;11.038;2023-01-13T18:06:59;4.72;;;1.33;;
30380;SDS011;17169;50.966;11.038;2023-01-13T18:10:03;3.97;;;1.52;;
30380;SDS011;17169;50.966;11.038;2023-01-13T18:13:06;3.25;;;1.25;;
30380;SDS011;17169;50.966;11.038;2023-01-13T18:16:09;6.38;;;1.30;;
30380;SDS011;17169;50.966;11.038;2023-01-13T18:19:13;5.60;;;1.35;;
30380;SDS011;17169;50.966;11.038;2023-01-13T18:22:33;8.30;;;1.67;;
30380;SDS011;17169;50.966;11.038;2023-01-13T18:25:54;4.40;;;1.58;;
30380;SDS011;17169;50.966;11.038;2023-01-13T18:29:14;4.97;;;1.38;;
30380;SDS011;17169;50.966;11.038;2023-01-13T18:32:16;3.90;;;1.38;;
30380;SDS011;17169;50.966;11.038;2023-01-13T18:35:19;3.28;;;1.30;;
30380;SDS011;17169;50.966;11.038;2023-01-13T18:38:22;4.53;;;1.48;;
30380;SDS011;17169;50.966;11.038;2023-01-13T18:41:25;6.07;;;1.50;;
30380;SDS011;17169;50.966;11.038;2023-01-13T18:44:45;3.67;;;1.35;;
30380;SDS011;17169;50.966;11.038;2023-01-13T18:47:47;6.93;;;1.35;;
30380;SDS011;17169;50.966;11.038;2023-01-13T18:50:50;3.22;;;1.20;;
30380;SDS011;17169;50.966;11.038;2023-01-13T18:53:52;3.25;;;1.30;;
30380;SDS011;17169;50.966;11.038;2023-01-13T18:56:56;4.15;;;1.30;;
30380;SDS011;17169;50.966;11.038;2023-01-13T19:00:01;5.30;;;1.25;;
30380;SDS011;17169;50.966;11.038;2023-01-13T19:03:04;4.55;;;1.38;;